sensor_id;sensor_type;location;lat;lon;timestamp;P1;durP1;ratioP1;P2;durP2;ratioP2
11823;SDS011;5969;50.780;7.726;2022-08-19T00:00:48;22.38;;;20.25;;
11823;SDS011;5969;50.780;7.726;2022-08-19T00:03:15;24.25;;;21.95;;
11823;SDS011;5969;50.780;7.726;2022-08-19T00:05:42;23.55;;;21.30;;
11823;SDS011;5969;50.780;7.726;2022-08-19T00:08:10;22.23;;;20.13;;
11823;SDS011;5969;50.780;7.726;2022-08-19T00:10:37;23.90;;;21.70;;
11823;SDS011;5969;50.780;7.726;2022-08-19T00:13:04;21.88;;;19.95;;
11823;SDS011;5969;50.780;7.726;2022-08-19T00:15:31;22.23;;;20.15;;
11823;SDS011;5969;50.780;7.726;2022-08-19T00:17:57;23.73;;;21.35;;
11823;SDS011;5969;50.780;7.726;2022-08-19T00:20:24;23.05;;;20.98;;
11823;SDS011;5969;50.780;7.726;2022-08-19T00:22:51;22.90;;;20.75;;
11823;SDS011;5969;50.780;7.726;2022-08-19T00:25:20;22.30;;;20.33;;
11823;SDS011;5969;50.780;7.726;2022-08-19T00:27:47;21.63;;;19.52;;
11823;SDS011;5969;50.780;7.726;2022-08-19T00:30:14;22.58;;;20.45;;
11823;SDS011;5969;50.780;7.726;2022-08-19T00:32:41;21.55;;;19.55;;
11823;SDS011;5969;50.780;7.726;2022-08-19T00:35:08;22.85;;;20.70;;
11823;SDS011;5969;50.780;7.726;2022-08-19T00:37:35;22.80;;;20.70;;
11823;SDS011;5969;50.780;7.726;2022-08-19T00:40:03;22.48;;;20.25;;
11823;SDS011;5969;50.780;7.726;2022-08-19T00:42:33;23.15;;;20.95;;
11823;SDS011;5969;50.780;7.726;2022-08-19T00:45:00;23.98;;;21.67;;
11823;SDS011;5969;50.780;7.726;2022-08-19T00:47:26;22.15;;;20.08;;
11823;SDS011;5969;50.780;7.726;2022-08-19T00:49:54;22.25;;;20.17;;
11823;SDS011;5969;50.780;7.726;2022-08-19T00:52:23;22.77;;;20.77;;
11823;SDS011;5969;50.780;7.726;2022-08-19T00:54:55;22.13;;;20.05;;
11823;SDS011;5969;50.780;7.726;2022-08-19T00:57:24;21.90;;;19.90;;
11823;SDS011;5969;50.780;7.726;2022-08-19T00:59:55;23.08;;;20.98;;
11823;SDS011;5969;50.780;7.726;2022-08-19T01:02:24;22.92;;;20.83;;
11823;SDS011;5969;50.780;7.726;2022-08-19T01:04:52;22.85;;;20.75;;
11823;SDS011;5969;50.780;7.726;2022-08-19T01:07:19;22.42;;;20.33;;
11823;SDS011;5969;50.780;7.726;2022-08-19T01:09:46;23.25;;;21.20;;
11823;SDS011;5969;50.780;7.726;2022-08-19T01:12:14;22.15;;;20.02;;
11823;SDS011;5969;50.780;7.726;2022-08-19T01:14:41;23.92;;;21.63;;
11823;SDS011;5969;50.780;7.726;2022-08-19T01:17:10;21.77;;;19.88;;
11823;SDS011;5969;50.780;7.726;2022-08-19T01:19:39;21.90;;;19.90;;
11823;SDS011;5969;50.780;7.726;2022-08-19T01:22:08;22.45;;;20.23;;
11823;SDS011;5969;50.780;7.726;2022-08-19T01:24:40;22.48;;;20.42;;
11823;SDS011;5969;50.780;7.726;2022-08-19T01:27:08;22.48;;;20.38;;
11823;SDS011;5969;50.780;7.726;2022-08-19T01:29:36;21.77;;;19.77;;
11823;SDS011;5969;50.780;7.726;2022-08-19T01:32:04;22.60;;;20.27;;
11823;SDS011;5969;50.780;7.726;2022-08-19T01:34:31;23.33;;;20.90;;
11823;SDS011;5969;50.780;7.726;2022-08-19T01:36:59;23.33;;;21.23;;
11823;SDS011;5969;50.780;7.726;2022-08-19T01:39:27;23.05;;;20.75;;
11823;SDS011;5969;50.780;7.726;2022-08-19T01:41:55;22.45;;;20.25;;
11823;SDS011;5969;50.780;7.726;2022-08-19T01:44:22;24.10;;;21.80;;
11823;SDS011;5969;50.780;7.726;2022-08-19T01:46:50;22.45;;;20.38;;
11823;SDS011;5969;50.780;7.726;2022-08-19T01:49:18;23.70;;;21.60;;
11823;SDS011;5969;50.780;7.726;2022-08-19T01:51:46;22.77;;;20.70;;
11823;SDS011;5969;50.780;7.726;2022-08-19T01:54:14;22.00;;;20.00;;
11823;SDS011;5969;50.780;7.726;2022-08-19T01:56:43;22.92;;;20.73;;
11823;SDS011;5969;50.780;7.726;2022-08-19T01:59:12;24.08;;;21.80;;
11823;SDS011;5969;50.780;7.726;2022-08-19T02:01:42;23.40;;;21.13;;
11823;SDS011;5969;50.780;7.726;2022-08-19T02:04:09;21.30;;;19.38;;
11823;SDS011;5969;50.780;7.726;2022-08-19T02:06:36;24.08;;;21.73;;
11823;SDS011;5969;50.780;7.726;2022-08-19T02:09:04;24.40;;;22.10;;
11823;SDS011;5969;50.780;7.726;2022-08-19T02:11:33;24.00;;;21.75;;
11823;SDS011;5969;50.780;7.726;2022-08-19T02:14:03;23.98;;;21.67;;
11823;SDS011;5969;50.780;7.726;2022-08-19T02:16:33;24.83;;;22.50;;
11823;SDS011;5969;50.780;7.726;2022-08-19T02:19:00;23.20;;;21.02;;
11823;SDS011;5969;50.780;7.726;2022-08-19T02:21:28;22.85;;;20.70;;
11823;SDS011;5969;50.780;7.726;2022-08-19T02:23:55;23.23;;;21.15;;
11823;SDS011;5969;50.780;7.726;2022-08-19T02:26:22;22.38;;;20.33;;
11823;SDS011;5969;50.780;7.726;2022-08-19T02:28:49;22.52;;;20.52;;
11823;SDS011;5969;50.780;7.726;2022-08-19T02:31:19;24.33;;;22.02;;
11823;SDS011;5969;50.780;7.726;2022-08-19T02:33:49;22.70;;;20.65;;
11823;SDS011;5969;50.780;7.726;2022-08-19T02:36:17;22.13;;;20.02;;
11823;SDS011;5969;50.780;7.726;2022-08-19T02:38:44;23.60;;;21.50;;
11823;SDS011;5969;50.780;7.726;2022-08-19T02:41:11;23.38;;;21.20;;
11823;SDS011;5969;50.780;7.726;2022-08-19T02:43:40;23.52;;;21.27;;
11823;SDS011;5969;50.780;7.726;2022-08-19T02:46:11;24.77;;;22.23;;
11823;SDS011;5969;50.780;7.726;2022-08-19T02:48:40;25.77;;;23.48;;
11823;SDS011;5969;50.780;7.726;2022-08-19T02:51:08;24.25;;;21.92;;
11823;SDS011;5969;50.780;7.726;2022-08-19T02:53:41;22.95;;;20.77;;
11823;SDS011;5969;50.780;7.726;2022-08-19T02:56:08;24.58;;;22.05;;
11823;SDS011;5969;50.780;7.726;2022-08-19T02:58:35;23.70;;;21.52;;
11823;SDS011;5969;50.780;7.726;2022-08-19T03:01:01;24.75;;;22.33;;
11823;SDS011;5969;50.780;7.726;2022-08-19T03:03:28;23.88;;;21.67;;
11823;SDS011;5969;50.780;7.726;2022-08-19T03:06:08;23.38;;;21.02;;
11823;SDS011;5969;50.780;7.726;2022-08-19T03:08:38;22.85;;;20.65;;
11823;SDS011;5969;50.780;7.726;2022-08-19T03:11:11;25.23;;;22.83;;
11823;SDS011;5969;50.780;7.726;2022-08-19T03:13:39;23.20;;;21.00;;
11823;SDS011;5969;50.780;7.726;2022-08-19T03:16:08;22.50;;;20.40;;
11823;SDS011;5969;50.780;7.726;2022-08-19T03:18:35;23.15;;;20.90;;
11823;SDS011;5969;50.780;7.726;2022-08-19T03:21:02;22.50;;;20.25;;
11823;SDS011;5969;50.780;7.726;2022-08-19T03:23:30;22.00;;;19.80;;
11823;SDS011;5969;50.780;7.726;2022-08-19T03:25:57;24.05;;;21.75;;
11823;SDS011;5969;50.780;7.726;2022-08-19T03:28:25;23.48;;;21.27;;
11823;SDS011;5969;50.780;7.726;2022-08-19T03:30:56;23.25;;;20.95;;
11823;SDS011;5969;50.780;7.726;2022-08-19T03:33:25;23.20;;;21.10;;
11823;SDS011;5969;50.780;7.726;2022-08-19T03:35:59;22.90;;;20.63;;
11823;SDS011;5969;50.780;7.726;2022-08-19T03:38:33;23.85;;;21.63;;
11823;SDS011;5969;50.780;7.726;2022-08-19T03:41:05;23.20;;;20.88;;
11823;SDS011;5969;50.780;7.726;2022-08-19T03:43:33;24.85;;;22.35;;
11823;SDS011;5969;50.780;7.726;2022-08-19T03:46:02;23.88;;;21.55;;
11823;SDS011;5969;50.780;7.726;2022-08-19T03:48:31;22.42;;;20.40;;
11823;SDS011;5969;50.780;7.726;2022-08-19T03:50:58;22.33;;;20.13;;
11823;SDS011;5969;50.780;7.726;2022-08-19T03:53:25;22.40;;;20.25;;
11823;SDS011;5969;50.780;7.726;2022-08-19T03:55:54;22.23;;;20.15;;
11823;SDS011;5969;50.780;7.726;2022-08-19T03:58:22;22.48;;;20.45;;
11823;SDS011;5969;50.780;7.726;2022-08-19T04:00:49;21.88;;;19.90;;
11823;SDS011;5969;50.780;7.726;2022-08-19T04:03:16;23.10;;;20.70;;
11823;SDS011;5969;50.780;7.726;2022-08-19T04:05:43;21.95;;;19.80;;
11823;SDS011;5969;50.780;7.726;2022-08-19T04:08:11;23.42;;;21.33;;
11823;SDS011;5969;50.780;7.726;2022-08-19T04:10:38;23.45;;;21.25;;
11823;SDS011;5969;50.780;7.726;2022-08-19T04:13:07;22.05;;;20.05;;
11823;SDS011;5969;50.780;7.726;2022-08-19T04:15:38;23.85;;;21.48;;
11823;SDS011;5969;50.780;7.726;2022-08-19T04:18:06;21.13;;;19.08;;
11823;SDS011;5969;50.780;7.726;2022-08-19T04:20:37;23.02;;;20.83;;
11823;SDS011;5969;50.780;7.726;2022-08-19T04:23:05;21.88;;;19.77;;
11823;SDS011;5969;50.780;7.726;2022-08-19T04:25:34;22.10;;;19.90;;
11823;SDS011;5969;50.780;7.726;2022-08-19T04:28:02;21.90;;;19.63;;
11823;SDS011;5969;50.780;7.726;2022-08-19T04:30:31;21.50;;;19.55;;
11823;SDS011;5969;50.780;7.726;2022-08-19T04:33:04;22.05;;;19.95;;
11823;SDS011;5969;50.780;7.726;2022-08-19T04:35:34;22.65;;;20.35;;
11823;SDS011;5969;50.780;7.726;2022-08-19T04:38:02;22.00;;;19.75;;
11823;SDS011;5969;50.780;7.726;2022-08-19T04:40:29;22.10;;;20.13;;
11823;SDS011;5969;50.780;7.726;2022-08-19T04:43:13;21.35;;;19.23;;
11823;SDS011;5969;50.780;7.726;2022-08-19T04:45:42;21.33;;;19.13;;
11823;SDS011;5969;50.780;7.726;2022-08-19T04:48:09;21.20;;;19.10;;
11823;SDS011;5969;50.780;7.726;2022-08-19T04:50:38;21.98;;;19.80;;
11823;SDS011;5969;50.780;7.726;2022-08-19T04:53:06;21.05;;;19.13;;
11823;SDS011;5969;50.780;7.726;2022-08-19T04:55:33;21.92;;;19.92;;
11823;SDS011;5969;50.780;7.726;2022-08-19T04:58:00;20.98;;;18.98;;
11823;SDS011;5969;50.780;7.726;2022-08-19T05:00:27;20.40;;;18.50;;
11823;SDS011;5969;50.780;7.726;2022-08-19T05:02:55;21.63;;;19.52;;
11823;SDS011;5969;50.780;7.726;2022-08-19T05:05:22;22.05;;;19.85;;
11823;SDS011;5969;50.780;7.726;2022-08-19T05:07:49;22.23;;;20.00;;
11823;SDS011;5969;50.780;7.726;2022-08-19T05:10:16;20.33;;;18.42;;
11823;SDS011;5969;50.780;7.726;2022-08-19T05:12:43;20.55;;;18.55;;
11823;SDS011;5969;50.780;7.726;2022-08-19T05:15:10;21.98;;;19.58;;
11823;SDS011;5969;50.780;7.726;2022-08-19T05:17:37;21.02;;;18.88;;
11823;SDS011;5969;50.780;7.726;2022-08-19T05:20:25;20.40;;;18.50;;
11823;SDS011;5969;50.780;7.726;2022-08-19T05:23:10;21.27;;;19.27;;
11823;SDS011;5969;50.780;7.726;2022-08-19T05:25:40;19.45;;;17.55;;
11823;SDS011;5969;50.780;7.726;2022-08-19T05:28:07;21.63;;;19.52;;
11823;SDS011;5969;50.780;7.726;2022-08-19T05:30:34;21.95;;;19.65;;
11823;SDS011;5969;50.780;7.726;2022-08-19T05:33:01;21.08;;;18.95;;
11823;SDS011;5969;50.780;7.726;2022-08-19T05:35:29;21.63;;;19.63;;
11823;SDS011;5969;50.780;7.726;2022-08-19T05:37:56;22.38;;;20.30;;
11823;SDS011;5969;50.780;7.726;2022-08-19T05:40:23;20.73;;;18.65;;
11823;SDS011;5969;50.780;7.726;2022-08-19T05:42:50;22.90;;;20.80;;
11823;SDS011;5969;50.780;7.726;2022-08-19T05:45:18;22.27;;;19.98;;
11823;SDS011;5969;50.780;7.726;2022-08-19T05:47:45;20.98;;;18.92;;
11823;SDS011;5969;50.780;7.726;2022-08-19T05:50:12;21.88;;;19.67;;
11823;SDS011;5969;50.780;7.726;2022-08-19T05:52:40;20.95;;;19.02;;
11823;SDS011;5969;50.780;7.726;2022-08-19T05:55:07;21.27;;;19.27;;
11823;SDS011;5969;50.780;7.726;2022-08-19T05:57:34;22.08;;;19.98;;
11823;SDS011;5969;50.780;7.726;2022-08-19T06:00:01;20.80;;;18.88;;
11823;SDS011;5969;50.780;7.726;2022-08-19T06:02:32;22.27;;;20.27;;
11823;SDS011;5969;50.780;7.726;2022-08-19T06:05:00;20.85;;;18.95;;
11823;SDS011;5969;50.780;7.726;2022-08-19T06:07:27;21.73;;;19.75;;
11823;SDS011;5969;50.780;7.726;2022-08-19T06:09:56;23.25;;;21.05;;
11823;SDS011;5969;50.780;7.726;2022-08-19T06:12:23;22.10;;;20.10;;
11823;SDS011;5969;50.780;7.726;2022-08-19T06:14:58;22.38;;;20.38;;
11823;SDS011;5969;50.780;7.726;2022-08-19T06:17:25;21.45;;;19.50;;
11823;SDS011;5969;50.780;7.726;2022-08-19T06:19:52;22.38;;;20.27;;
11823;SDS011;5969;50.780;7.726;2022-08-19T06:22:18;21.05;;;19.15;;
11823;SDS011;5969;50.780;7.726;2022-08-19T06:24:45;19.50;;;17.80;;
11823;SDS011;5969;50.780;7.726;2022-08-19T06:27:13;21.98;;;19.77;;
11823;SDS011;5969;50.780;7.726;2022-08-19T06:29:40;22.85;;;20.55;;
11823;SDS011;5969;50.780;7.726;2022-08-19T06:32:08;22.02;;;20.02;;
11823;SDS011;5969;50.780;7.726;2022-08-19T06:34:36;22.27;;;20.08;;
11823;SDS011;5969;50.780;7.726;2022-08-19T06:37:03;23.60;;;21.55;;
11823;SDS011;5969;50.780;7.726;2022-08-19T06:39:31;23.90;;;21.50;;
11823;SDS011;5969;50.780;7.726;2022-08-19T06:42:03;23.20;;;21.02;;
11823;SDS011;5969;50.780;7.726;2022-08-19T06:44:35;22.60;;;20.27;;
11823;SDS011;5969;50.780;7.726;2022-08-19T06:47:04;22.70;;;20.70;;
11823;SDS011;5969;50.780;7.726;2022-08-19T06:49:33;25.80;;;23.23;;
11823;SDS011;5969;50.780;7.726;2022-08-19T06:52:01;23.95;;;21.75;;
11823;SDS011;5969;50.780;7.726;2022-08-19T06:54:29;24.65;;;22.45;;
11823;SDS011;5969;50.780;7.726;2022-08-19T06:56:56;24.42;;;21.88;;
11823;SDS011;5969;50.780;7.726;2022-08-19T06:59:24;23.33;;;21.02;;
11823;SDS011;5969;50.780;7.726;2022-08-19T07:01:55;26.02;;;23.60;;
11823;SDS011;5969;50.780;7.726;2022-08-19T07:04:24;25.17;;;22.85;;
11823;SDS011;5969;50.780;7.726;2022-08-19T07:06:56;24.17;;;22.00;;
11823;SDS011;5969;50.780;7.726;2022-08-19T07:09:25;23.02;;;20.92;;
11823;SDS011;5969;50.780;7.726;2022-08-19T07:11:52;24.58;;;22.17;;
11823;SDS011;5969;50.780;7.726;2022-08-19T07:14:20;27.55;;;24.80;;
11823;SDS011;5969;50.780;7.726;2022-08-19T07:16:50;25.70;;;22.90;;
11823;SDS011;5969;50.780;7.726;2022-08-19T07:19:21;26.88;;;24.15;;
11823;SDS011;5969;50.780;7.726;2022-08-19T07:21:51;27.15;;;24.55;;
11823;SDS011;5969;50.780;7.726;2022-08-19T07:24:19;27.17;;;24.67;;
11823;SDS011;5969;50.780;7.726;2022-08-19T07:26:48;26.52;;;24.13;;
11823;SDS011;5969;50.780;7.726;2022-08-19T07:29:17;28.60;;;25.73;;
11823;SDS011;5969;50.780;7.726;2022-08-19T07:31:47;28.50;;;25.60;;
11823;SDS011;5969;50.780;7.726;2022-08-19T07:34:15;27.75;;;24.92;;
11823;SDS011;5969;50.780;7.726;2022-08-19T07:36:44;27.55;;;24.95;;
11823;SDS011;5969;50.780;7.726;2022-08-19T07:39:12;29.58;;;26.58;;
11823;SDS011;5969;50.780;7.726;2022-08-19T07:41:41;29.10;;;26.20;;
11823;SDS011;5969;50.780;7.726;2022-08-19T07:44:08;30.15;;;27.15;;
11823;SDS011;5969;50.780;7.726;2022-08-19T07:46:37;30.77;;;27.67;;
11823;SDS011;5969;50.780;7.726;2022-08-19T07:49:05;30.52;;;27.70;;
11823;SDS011;5969;50.780;7.726;2022-08-19T07:51:33;30.13;;;27.23;;
11823;SDS011;5969;50.780;7.726;2022-08-19T07:54:02;32.80;;;29.63;;
11823;SDS011;5969;50.780;7.726;2022-08-19T07:56:28;32.78;;;29.67;;
11823;SDS011;5969;50.780;7.726;2022-08-19T07:58:55;31.13;;;27.85;;
11823;SDS011;5969;50.780;7.726;2022-08-19T08:01:23;33.72;;;30.33;;
11823;SDS011;5969;50.780;7.726;2022-08-19T08:03:51;31.40;;;28.48;;
11823;SDS011;5969;50.780;7.726;2022-08-19T08:06:36;30.45;;;27.60;;
11823;SDS011;5969;50.780;7.726;2022-08-19T08:09:23;30.05;;;27.35;;
11823;SDS011;5969;50.780;7.726;2022-08-19T08:11:53;29.17;;;26.52;;
11823;SDS011;5969;50.780;7.726;2022-08-19T08:14:22;28.92;;;26.25;;
11823;SDS011;5969;50.780;7.726;2022-08-19T08:16:51;29.13;;;26.27;;
11823;SDS011;5969;50.780;7.726;2022-08-19T08:19:19;29.25;;;26.55;;
11823;SDS011;5969;50.780;7.726;2022-08-19T08:21:47;28.33;;;25.50;;
11823;SDS011;5969;50.780;7.726;2022-08-19T08:24:14;28.02;;;25.45;;
11823;SDS011;5969;50.780;7.726;2022-08-19T08:26:43;27.38;;;24.88;;
11823;SDS011;5969;50.780;7.726;2022-08-19T08:29:11;27.88;;;25.35;;
11823;SDS011;5969;50.780;7.726;2022-08-19T08:31:38;27.15;;;24.55;;
11823;SDS011;5969;50.780;7.726;2022-08-19T08:34:06;26.35;;;23.95;;
11823;SDS011;5969;50.780;7.726;2022-08-19T08:36:35;23.30;;;21.10;;
11823;SDS011;5969;50.780;7.726;2022-08-19T08:39:05;26.52;;;24.23;;
11823;SDS011;5969;50.780;7.726;2022-08-19T08:41:34;25.98;;;23.48;;
11823;SDS011;5969;50.780;7.726;2022-08-19T08:44:10;27.33;;;24.83;;
11823;SDS011;5969;50.780;7.726;2022-08-19T08:46:41;24.58;;;22.42;;
11823;SDS011;5969;50.780;7.726;2022-08-19T08:49:16;22.23;;;20.23;;
11823;SDS011;5969;50.780;7.726;2022-08-19T08:51:58;21.77;;;19.80;;
11823;SDS011;5969;50.780;7.726;2022-08-19T08:54:30;23.85;;;21.70;;
11823;SDS011;5969;50.780;7.726;2022-08-19T08:56:59;19.38;;;17.60;;
11823;SDS011;5969;50.780;7.726;2022-08-19T08:59:28;15.20;;;13.90;;
11823;SDS011;5969;50.780;7.726;2022-08-19T09:01:58;16.85;;;15.13;;
11823;SDS011;5969;50.780;7.726;2022-08-19T09:04:25;17.48;;;15.88;;
11823;SDS011;5969;50.780;7.726;2022-08-19T09:06:55;14.30;;;12.38;;
11823;SDS011;5969;50.780;7.726;2022-08-19T09:09:34;11.45;;;10.35;;
11823;SDS011;5969;50.780;7.726;2022-08-19T09:12:06;10.35;;;9.43;;
11823;SDS011;5969;50.780;7.726;2022-08-19T09:14:43;14.02;;;12.65;;
11823;SDS011;5969;50.780;7.726;2022-08-19T09:17:14;12.93;;;11.73;;
11823;SDS011;5969;50.780;7.726;2022-08-19T09:19:51;18.63;;;16.85;;
11823;SDS011;5969;50.780;7.726;2022-08-19T09:22:20;17.67;;;15.98;;
11823;SDS011;5969;50.780;7.726;2022-08-19T09:24:47;12.48;;;11.38;;
11823;SDS011;5969;50.780;7.726;2022-08-19T09:27:15;13.85;;;12.57;;
11823;SDS011;5969;50.780;7.726;2022-08-19T09:29:43;12.55;;;11.35;;
11823;SDS011;5969;50.780;7.726;2022-08-19T09:32:11;9.55;;;8.80;;
11823;SDS011;5969;50.780;7.726;2022-08-19T09:34:37;10.35;;;9.20;;
11823;SDS011;5969;50.780;7.726;2022-08-19T09:37:04;10.77;;;9.77;;
11823;SDS011;5969;50.780;7.726;2022-08-19T09:39:31;10.70;;;9.80;;
11823;SDS011;5969;50.780;7.726;2022-08-19T09:41:58;11.57;;;10.45;;
11823;SDS011;5969;50.780;7.726;2022-08-19T09:44:25;11.55;;;10.55;;
11823;SDS011;5969;50.780;7.726;2022-08-19T09:46:53;9.10;;;8.27;;
11823;SDS011;5969;50.780;7.726;2022-08-19T09:49:21;10.88;;;9.80;;
11823;SDS011;5969;50.780;7.726;2022-08-19T09:51:49;10.27;;;9.27;;
11823;SDS011;5969;50.780;7.726;2022-08-19T09:54:16;8.95;;;8.00;;
11823;SDS011;5969;50.780;7.726;2022-08-19T09:56:44;8.15;;;7.38;;
11823;SDS011;5969;50.780;7.726;2022-08-19T09:59:10;8.20;;;7.40;;
11823;SDS011;5969;50.780;7.726;2022-08-19T10:01:38;8.10;;;7.30;;
11823;SDS011;5969;50.780;7.726;2022-08-19T10:04:06;8.02;;;7.43;;
11823;SDS011;5969;50.780;7.726;2022-08-19T10:06:34;8.82;;;8.10;;
11823;SDS011;5969;50.780;7.726;2022-08-19T10:09:03;9.07;;;8.27;;
11823;SDS011;5969;50.780;7.726;2022-08-19T10:11:31;9.30;;;8.40;;
11823;SDS011;5969;50.780;7.726;2022-08-19T10:13:58;10.05;;;9.05;;
11823;SDS011;5969;50.780;7.726;2022-08-19T10:16:25;9.30;;;8.40;;
11823;SDS011;5969;50.780;7.726;2022-08-19T10:18:53;8.90;;;8.00;;
11823;SDS011;5969;50.780;7.726;2022-08-19T10:21:22;8.75;;;7.93;;
11823;SDS011;5969;50.780;7.726;2022-08-19T10:23:52;6.50;;;5.90;;
11823;SDS011;5969;50.780;7.726;2022-08-19T10:26:24;8.38;;;6.78;;
11823;SDS011;5969;50.780;7.726;2022-08-19T10:28:53;9.48;;;8.02;;
11823;SDS011;5969;50.780;7.726;2022-08-19T10:31:21;9.20;;;8.30;;
11823;SDS011;5969;50.780;7.726;2022-08-19T10:33:49;7.40;;;6.70;;
11823;SDS011;5969;50.780;7.726;2022-08-19T10:36:25;8.43;;;7.63;;
11823;SDS011;5969;50.780;7.726;2022-08-19T10:38:54;7.65;;;7.05;;
11823;SDS011;5969;50.780;7.726;2022-08-19T10:41:24;6.88;;;6.22;;
11823;SDS011;5969;50.780;7.726;2022-08-19T10:43:53;7.68;;;6.88;;
11823;SDS011;5969;50.780;7.726;2022-08-19T10:46:22;6.40;;;5.80;;
11823;SDS011;5969;50.780;7.726;2022-08-19T10:48:50;7.38;;;6.75;;
11823;SDS011;5969;50.780;7.726;2022-08-19T10:51:17;8.23;;;6.57;;
11823;SDS011;5969;50.780;7.726;2022-08-19T10:54:03;6.28;;;5.70;;
11823;SDS011;5969;50.780;7.726;2022-08-19T10:56:30;6.32;;;5.20;;
11823;SDS011;5969;50.780;7.726;2022-08-19T10:59:16;5.32;;;4.82;;
11823;SDS011;5969;50.780;7.726;2022-08-19T11:01:45;7.43;;;5.65;;
11823;SDS011;5969;50.780;7.726;2022-08-19T11:04:12;6.50;;;5.93;;
11823;SDS011;5969;50.780;7.726;2022-08-19T11:06:42;5.55;;;5.07;;
11823;SDS011;5969;50.780;7.726;2022-08-19T11:09:13;5.38;;;4.97;;
11823;SDS011;5969;50.780;7.726;2022-08-19T11:11:41;4.93;;;4.50;;
11823;SDS011;5969;50.780;7.726;2022-08-19T11:14:08;6.78;;;5.10;;
11823;SDS011;5969;50.780;7.726;2022-08-19T11:16:36;10.90;;;5.35;;
11823;SDS011;5969;50.780;7.726;2022-08-19T11:19:04;7.90;;;5.47;;
11823;SDS011;5969;50.780;7.726;2022-08-19T11:21:34;7.35;;;6.65;;
11823;SDS011;5969;50.780;7.726;2022-08-19T11:24:02;6.53;;;5.93;;
11823;SDS011;5969;50.780;7.726;2022-08-19T11:26:33;7.70;;;6.07;;
11823;SDS011;5969;50.780;7.726;2022-08-19T11:29:01;5.80;;;5.25;;
11823;SDS011;5969;50.780;7.726;2022-08-19T11:31:31;7.38;;;3.83;;
11823;SDS011;5969;50.780;7.726;2022-08-19T11:34:01;4.70;;;4.20;;
11823;SDS011;5969;50.780;7.726;2022-08-19T11:36:30;6.95;;;5.45;;
11823;SDS011;5969;50.780;7.726;2022-08-19T11:38:57;6.20;;;5.70;;
11823;SDS011;5969;50.780;7.726;2022-08-19T11:41:25;7.97;;;7.13;;
11823;SDS011;5969;50.780;7.726;2022-08-19T11:43:53;7.95;;;6.20;;
11823;SDS011;5969;50.780;7.726;2022-08-19T11:46:21;6.72;;;6.22;;
11823;SDS011;5969;50.780;7.726;2022-08-19T11:48:50;9.00;;;7.40;;
11823;SDS011;5969;50.780;7.726;2022-08-19T11:51:18;6.70;;;6.07;;
11823;SDS011;5969;50.780;7.726;2022-08-19T11:53:46;6.65;;;5.93;;
11823;SDS011;5969;50.780;7.726;2022-08-19T11:56:13;6.53;;;5.72;;
11823;SDS011;5969;50.780;7.726;2022-08-19T11:58:40;7.50;;;6.80;;
11823;SDS011;5969;50.780;7.726;2022-08-19T12:01:10;5.75;;;5.25;;
11823;SDS011;5969;50.780;7.726;2022-08-19T12:03:38;5.68;;;4.78;;
11823;SDS011;5969;50.780;7.726;2022-08-19T12:06:05;5.57;;;4.10;;
11823;SDS011;5969;50.780;7.726;2022-08-19T12:08:34;7.40;;;3.92;;
11823;SDS011;5969;50.780;7.726;2022-08-19T12:11:00;6.85;;;6.32;;
11823;SDS011;5969;50.780;7.726;2022-08-19T12:13:28;6.00;;;5.32;;
11823;SDS011;5969;50.780;7.726;2022-08-19T12:15:55;5.15;;;4.75;;
11823;SDS011;5969;50.780;7.726;2022-08-19T12:18:24;6.25;;;4.55;;
11823;SDS011;5969;50.780;7.726;2022-08-19T12:20:51;5.32;;;4.20;;
11823;SDS011;5969;50.780;7.726;2022-08-19T12:23:21;4.15;;;3.70;;
11823;SDS011;5969;50.780;7.726;2022-08-19T12:25:48;4.47;;;4.07;;
11823;SDS011;5969;50.780;7.726;2022-08-19T12:28:16;4.57;;;4.13;;
11823;SDS011;5969;50.780;7.726;2022-08-19T12:30:44;4.20;;;3.90;;
11823;SDS011;5969;50.780;7.726;2022-08-19T12:33:11;5.07;;;4.57;;
11823;SDS011;5969;50.780;7.726;2022-08-19T12:35:40;6.95;;;5.15;;
11823;SDS011;5969;50.780;7.726;2022-08-19T12:38:07;6.45;;;4.80;;
11823;SDS011;5969;50.780;7.726;2022-08-19T12:40:34;4.93;;;4.47;;
11823;SDS011;5969;50.780;7.726;2022-08-19T12:43:01;5.43;;;4.93;;
11823;SDS011;5969;50.780;7.726;2022-08-19T12:45:28;5.25;;;4.75;;
11823;SDS011;5969;50.780;7.726;2022-08-19T12:47:54;5.13;;;4.63;;
11823;SDS011;5969;50.780;7.726;2022-08-19T12:50:21;5.38;;;4.85;;
11823;SDS011;5969;50.780;7.726;2022-08-19T12:52:49;5.63;;;5.13;;
11823;SDS011;5969;50.780;7.726;2022-08-19T12:55:17;5.95;;;5.00;;
11823;SDS011;5969;50.780;7.726;2022-08-19T12:57:44;7.65;;;6.00;;
11823;SDS011;5969;50.780;7.726;2022-08-19T13:00:13;7.85;;;7.07;;
11823;SDS011;5969;50.780;7.726;2022-08-19T13:02:42;6.75;;;6.03;;
11823;SDS011;5969;50.780;7.726;2022-08-19T13:05:12;6.63;;;6.13;;
11823;SDS011;5969;50.780;7.726;2022-08-19T13:07:41;9.18;;;5.60;;
11823;SDS011;5969;50.780;7.726;2022-08-19T13:10:12;7.10;;;6.60;;
11823;SDS011;5969;50.780;7.726;2022-08-19T13:12:41;7.38;;;5.45;;
11823;SDS011;5969;50.780;7.726;2022-08-19T13:15:08;7.07;;;6.47;;
11823;SDS011;5969;50.780;7.726;2022-08-19T13:17:36;6.95;;;6.25;;
11823;SDS011;5969;50.780;7.726;2022-08-19T13:20:04;6.95;;;6.22;;
11823;SDS011;5969;50.780;7.726;2022-08-19T13:22:32;5.70;;;5.30;;
11823;SDS011;5969;50.780;7.726;2022-08-19T13:25:00;6.18;;;5.57;;
11823;SDS011;5969;50.780;7.726;2022-08-19T13:27:29;6.10;;;5.25;;
11823;SDS011;5969;50.780;7.726;2022-08-19T13:29:56;5.05;;;4.55;;
11823;SDS011;5969;50.780;7.726;2022-08-19T13:32:41;7.28;;;4.80;;
11823;SDS011;5969;50.780;7.726;2022-08-19T13:35:25;5.25;;;4.55;;
11823;SDS011;5969;50.780;7.726;2022-08-19T13:37:52;6.00;;;3.90;;
11823;SDS011;5969;50.780;7.726;2022-08-19T13:40:20;4.78;;;3.95;;
11823;SDS011;5969;50.780;7.726;2022-08-19T13:42:52;3.97;;;3.47;;
11823;SDS011;5969;50.780;7.726;2022-08-19T13:45:20;5.65;;;4.18;;
11823;SDS011;5969;50.780;7.726;2022-08-19T13:47:49;5.15;;;3.45;;
11823;SDS011;5969;50.780;7.726;2022-08-19T13:50:19;5.47;;;4.05;;
11823;SDS011;5969;50.780;7.726;2022-08-19T13:52:50;6.05;;;5.18;;
11823;SDS011;5969;50.780;7.726;2022-08-19T13:55:17;6.45;;;5.70;;
11823;SDS011;5969;50.780;7.726;2022-08-19T13:57:44;6.15;;;5.65;;
11823;SDS011;5969;50.780;7.726;2022-08-19T14:00:14;6.70;;;6.10;;
11823;SDS011;5969;50.780;7.726;2022-08-19T14:02:43;7.07;;;5.93;;
11823;SDS011;5969;50.780;7.726;2022-08-19T14:05:12;6.38;;;4.28;;
11823;SDS011;5969;50.780;7.726;2022-08-19T14:07:41;5.18;;;4.47;;
11823;SDS011;5969;50.780;7.726;2022-08-19T14:10:08;6.35;;;4.47;;
11823;SDS011;5969;50.780;7.726;2022-08-19T14:12:37;6.13;;;5.50;;
11823;SDS011;5969;50.780;7.726;2022-08-19T14:15:04;7.80;;;5.35;;
11823;SDS011;5969;50.780;7.726;2022-08-19T14:17:36;6.75;;;6.15;;
11823;SDS011;5969;50.780;7.726;2022-08-19T14:20:05;6.85;;;6.22;;
11823;SDS011;5969;50.780;7.726;2022-08-19T14:22:35;7.03;;;6.18;;
11823;SDS011;5969;50.780;7.726;2022-08-19T14:25:04;9.23;;;6.53;;
11823;SDS011;5969;50.780;7.726;2022-08-19T14:27:32;7.05;;;6.25;;
11823;SDS011;5969;50.780;7.726;2022-08-19T14:30:00;9.25;;;6.85;;
11823;SDS011;5969;50.780;7.726;2022-08-19T14:32:27;7.57;;;6.82;;
11823;SDS011;5969;50.780;7.726;2022-08-19T14:34:55;7.22;;;6.22;;
11823;SDS011;5969;50.780;7.726;2022-08-19T14:37:22;6.50;;;5.45;;
11823;SDS011;5969;50.780;7.726;2022-08-19T14:39:49;5.55;;;4.82;;
11823;SDS011;5969;50.780;7.726;2022-08-19T14:42:16;5.85;;;5.35;;
11823;SDS011;5969;50.780;7.726;2022-08-19T14:44:43;5.60;;;5.07;;
11823;SDS011;5969;50.780;7.726;2022-08-19T14:47:10;8.20;;;5.07;;
11823;SDS011;5969;50.780;7.726;2022-08-19T14:49:37;6.75;;;4.10;;
11823;SDS011;5969;50.780;7.726;2022-08-19T14:52:05;4.68;;;4.25;;